Time,TemperatureF,DewpointF,PressureIn,WindDirection,WindDirectionDegrees,WindSpeedMPH,WindSpeedGustMPH,Humidity,HourlyPrecipIn,Conditions,Clouds,dailyrainin,SoftwareType,DateUTC
2013-04-22 00:06:00,38.3,29.0,30.68,SE,141,0.0,1.0,69,0.00,,,0.00,weatherlink.com 1.10,2013-04-22 04:06:00,
2013-04-22 00:21:00,38.0,29.0,30.68,SE,141,0.0,0.0,70,0.00,,,0.00,weatherlink.com 1.10,2013-04-22 04:21:00,
2013-04-22 00:36:00,37.9,29.0,30.68,SE,141,0.0,0.0,70,0.00,,,0.00,weatherlink.com 1.10,2013-04-22 04:36:00,
2013-04-22 00:51:00,38.2,30.0,30.67,SE,141,0.0,0.0,71,0.00,,,0.00,weatherlink.com 1.10,2013-04-22 04:51:00,
2013-04-22 01:06:00,38.4,30.0,30.67,SE,141,0.0,1.0,72,0.00,,,0.00,weatherlink.com 1.10,2013-04-22 05:06:00,
2013-04-22 01:22:00,38.5,31.0,30.67,SE,141,0.0,1.0,73,0.00,,,0.00,weatherlink.com 1.10,2013-04-22 05:22:00,
2013-04-22 01:37:00,37.8,30.0,30.67,SE,141,0.0,0.0,73,0.00,,,0.00,weatherlink.com 1.10,2013-04-22 05:37:00,
2013-04-22 01:52:00,37.0,30.0,30.67,SE,141,0.0,0.0,76,0.00,,,0.00,weatherlink.com 1.10,2013-04-22 05:52:00,
2013-04-22 02:07:00,37.3,31.0,30.67,SE,139,0.0,0.0,77,0.00,,,0.00,weatherlink.com 1.10,2013-04-22 06:07:00,
2013-04-22 02:22:00,37.1,31.0,30.67,SE,141,0.0,0.0,78,0.00,,,0.00,weatherlink.com 1.10,2013-04-22 06:22:00,
2013-04-22 02:37:00,36.8,31.0,30.67,SE,141,0.0,0.0,78,0.00,,,0.00,weatherlink.com 1.10,2013-04-22 06:37:00,
2013-04-22 02:52:00,36.7,31.0,30.67,SE,141,0.0,0.0,80,0.00,,,0.00,weatherlink.com 1.10,2013-04-22 06:52:00,
2013-04-22 03:07:00,36.2,31.0,30.67,SE,141,0.0,0.0,82,0.00,,,0.00,weatherlink.com 1.10,2013-04-22 07:07:00,
2013-04-22 03:22:00,35.5,31.0,30.68,SE,141,0.0,1.0,83,0.00,,,0.00,weatherlink.com 1.10,2013-04-22 07:22:00,
2013-04-22 03:37:00,35.1,31.0,30.68,SE,138,0.0,1.0,84,0.00,,,0.00,weatherlink.com 1.10,2013-04-22 07:37:00,
2013-04-22 03:52:00,35.7,31.0,30.68,SE,132,0.0,1.0,84,0.00,,,0.00,weatherlink.com 1.10,2013-04-22 07:52:00,
2013-04-22 04:07:00,35.3,31.0,30.69,SE,133,0.0,0.0,83,0.00,,,0.00,weatherlink.com 1.10,2013-04-22 08:07:00,
2013-04-22 04:22:00,34.8,31.0,30.69,SE,132,0.0,1.0,85,0.00,,,0.00,weatherlink.com 1.10,2013-04-22 08:22:00,
2013-04-22 04:37:00,34.1,30.0,30.69,SE,133,0.0,1.0,85,0.00,,,0.00,weatherlink.com 1.10,2013-04-22 08:37:00,
2013-04-22 04:52:00,33.9,30.0,30.70,SE,132,0.0,0.0,86,0.00,,,0.00,weatherlink.com 1.10,2013-04-22 08:52:00,
2013-04-22 05:07:00,33.5,30.0,30.70,SE,132,0.0,0.0,86,0.00,,,0.00,weatherlink.com 1.10,2013-04-22 09:07:00,
2013-04-22 05:22:00,33.5,30.0,30.70,SE,133,0.0,0.0,87,0.00,,,0.00,weatherlink.com 1.10,2013-04-22 09:22:00,
2013-04-22 05:37:00,33.4,30.0,30.70,SE,133,0.0,0.0,88,0.00,,,0.00,weatherlink.com 1.10,2013-04-22 09:37:00,
2013-04-22 05:52:00,33.9,31.0,30.70,SE,132,0.0,1.0,88,0.00,,,0.00,weatherlink.com 1.10,2013-04-22 09:52:00,
2013-04-22 06:07:00,34.1,31.0,30.71,SE,132,0.0,1.0,87,0.00,,,0.00,weatherlink.com 1.10,2013-04-22 10:07:00,
2013-04-22 06:22:00,35.2,31.0,30.70,NNE,20,1.0,2.0,86,0.00,,,0.00,weatherlink.com 1.10,2013-04-22 10:22:00,
2013-04-22 06:37:00,36.2,31.0,30.71,NNE,18,1.0,3.0,82,0.00,,,0.00,weatherlink.com 1.10,2013-04-22 10:37:00,
2013-04-22 06:52:00,36.6,31.0,30.71,NE,47,0.0,3.0,81,0.00,,,0.00,weatherlink.com 1.10,2013-04-22 10:52:00,
2013-04-22 07:07:00,37.3,32.0,30.72,NNE,18,0.0,1.0,80,0.00,,,0.00,weatherlink.com 1.10,2013-04-22 11:07:00,
2013-04-22 07:22:00,38.3,32.0,30.72,NNW,340,0.0,2.0,78,0.00,,,0.00,weatherlink.com 1.10,2013-04-22 11:22:00,
2013-04-22 07:37:00,40.0,33.0,30.72,NNE,29,0.0,2.0,76,0.00,,,0.00,weatherlink.com 1.10,2013-04-22 11:37:00,
2013-04-22 07:52:00,42.3,33.0,30.72,East,95,1.0,7.0,69,0.00,,,0.00,weatherlink.com 1.10,2013-04-22 11:52:00,
2013-04-22 08:07:00,44.5,33.0,30.72,NE,56,3.0,5.0,65,0.00,,,0.00,weatherlink.com 1.10,2013-04-22 12:07:00,
2013-04-22 08:22:00,46.0,33.0,30.72,East,93,2.0,6.0,62,0.00,,,0.00,weatherlink.com 1.10,2013-04-22 12:22:00,
2013-04-22 08:38:00,47.3,34.0,30.71,NE,47,4.0,8.0,60,0.00,,,0.00,weatherlink.com 1.10,2013-04-22 12:38:00,
2013-04-22 08:53:00,48.0,34.0,30.72,SE,134,3.0,8.0,59,0.00,,,0.00,weatherlink.com 1.10,2013-04-22 12:53:00,
2013-04-22 09:09:00,48.2,33.0,30.72,NE,55,6.0,9.0,55,0.00,,,0.00,weatherlink.com 1.10,2013-04-22 13:09:00,
2013-04-22 09:23:00,48.3,33.0,30.72,ENE,58,3.0,8.0,55,0.00,,,0.00,weatherlink.com 1.10,2013-04-22 13:23:00,
2013-04-22 09:38:00,48.4,31.0,30.73,SSE,152,8.0,11.0,52,0.00,,,0.00,weatherlink.com 1.10,2013-04-22 13:38:00,
2013-04-22 09:53:00,48.9,33.0,30.74,East,87,3.0,9.0,54,0.00,,,0.00,weatherlink.com 1.10,2013-04-22 13:53:00,
2013-04-22 10:08:00,49.3,30.0,30.75,ENE,60,2.0,9.0,48,0.00,,,0.00,weatherlink.com 1.10,2013-04-22 14:08:00,
2013-04-22 10:23:00,49.0,30.0,30.76,NNW,345,1.0,9.0,48,0.00,,,0.00,weatherlink.com 1.10,2013-04-22 14:23:00,
2013-04-22 10:38:00,49.6,31.0,30.75,SE,146,5.0,8.0,49,0.00,,,0.00,weatherlink.com 1.10,2013-04-22 14:38:00,
2013-04-22 10:53:00,49.4,30.0,30.75,SE,141,12.0,12.0,47,0.00,,,0.00,weatherlink.com 1.10,2013-04-22 14:53:00,
2013-04-22 11:08:00,49.3,27.0,30.74,NE,47,1.0,13.0,43,0.00,,,0.00,weatherlink.com 1.10,2013-04-22 15:08:00,
2013-04-22 11:23:00,50.4,31.0,30.73,ESE,109,3.0,14.0,47,0.00,,,0.00,weatherlink.com 1.10,2013-04-22 15:23:00,
2013-04-22 11:38:00,50.1,25.0,30.73,ENE,73,5.0,12.0,37,0.00,,,0.00,weatherlink.com 1.10,2013-04-22 15:38:00,
2013-04-22 11:53:00,50.2,27.0,30.73,SSE,159,6.0,13.0,41,0.00,,,0.00,weatherlink.com 1.10,2013-04-22 15:53:00,
2013-04-22 12:08:00,50.4,29.0,30.73,SE,141,5.0,11.0,44,0.00,,,0.00,weatherlink.com 1.10,2013-04-22 16:08:00,
2013-04-22 12:23:00,49.5,28.0,30.73,ESE,115,4.0,11.0,44,0.00,,,0.00,weatherlink.com 1.10,2013-04-22 16:23:00,
2013-04-22 12:38:00,50.3,30.0,30.72,ENE,78,4.0,18.0,45,0.00,,,0.00,weatherlink.com 1.10,2013-04-22 16:38:00,
2013-04-22 12:53:00,50.0,24.0,30.73,ESE,122,9.0,14.0,37,0.00,,,0.00,weatherlink.com 1.10,2013-04-22 16:53:00,
2013-04-22 13:08:00,50.0,25.0,30.72,ENE,68,5.0,13.0,38,0.00,,,0.00,weatherlink.com 1.10,2013-04-22 17:08:00,
2013-04-22 13:23:00,50.3,24.0,30.72,ENE,63,6.0,12.0,36,0.00,,,0.00,weatherlink.com 1.10,2013-04-22 17:23:00,
2013-04-22 13:38:00,49.9,24.0,30.71,East,85,3.0,13.0,36,0.00,,,0.00,weatherlink.com 1.10,2013-04-22 17:38:00,
2013-04-22 13:53:00,49.7,24.0,30.71,SE,130,1.0,8.0,37,0.00,,,0.00,weatherlink.com 1.10,2013-04-22 17:53:00,
2013-04-22 14:08:00,50.5,26.0,30.69,SSW,198,2.0,12.0,38,0.00,,,0.00,weatherlink.com 1.10,2013-04-22 18:08:00,
2013-04-22 14:23:00,49.4,25.0,30.69,ESE,121,7.0,9.0,38,0.00,,,0.00,weatherlink.com 1.10,2013-04-22 18:23:00,
2013-04-22 14:38:00,50.0,29.0,30.68,SE,136,3.0,10.0,45,0.00,,,0.00,weatherlink.com 1.10,2013-04-22 18:38:00,
2013-04-22 14:53:00,50.0,31.0,30.68,ENE,64,5.0,9.0,49,0.00,,,0.00,weatherlink.com 1.10,2013-04-22 18:53:00,
2013-04-22 15:08:00,49.3,33.0,30.67,SE,131,2.0,10.0,53,0.00,,,0.00,weatherlink.com 1.10,2013-04-22 19:08:00,
2013-04-22 15:23:00,49.3,34.0,30.66,ESE,107,3.0,10.0,55,0.00,,,0.00,weatherlink.com 1.10,2013-04-22 19:23:00,
2013-04-22 15:38:00,48.8,34.0,30.66,NNW,334,4.0,10.0,57,0.00,,,0.00,weatherlink.com 1.10,2013-04-22 19:38:00,
2013-04-22 15:53:00,47.5,34.0,30.67,East,94,2.0,10.0,61,0.00,,,0.00,weatherlink.com 1.10,2013-04-22 19:53:00,
2013-04-22 16:08:00,47.7,35.0,30.67,ENE,68,2.0,8.0,61,0.00,,,0.00,weatherlink.com 1.10,2013-04-22 20:08:00,
2013-04-22 16:23:00,47.7,35.0,30.67,ESE,118,3.0,9.0,61,0.00,,,0.00,weatherlink.com 1.10,2013-04-22 20:23:00,
2013-04-22 16:38:00,47.1,35.0,30.66,East,90,4.0,9.0,63,0.00,,,0.00,weatherlink.com 1.10,2013-04-22 20:38:00,
2013-04-22 16:53:00,46.4,36.0,30.65,ENE,57,3.0,7.0,66,0.00,,,0.00,weatherlink.com 1.10,2013-04-22 20:53:00,
2013-04-22 17:08:00,46.2,36.0,30.66,South,170,4.0,8.0,68,0.00,,,0.00,weatherlink.com 1.10,2013-04-22 21:08:00,
2013-04-22 17:23:00,45.5,36.0,30.66,ENE,60,3.0,10.0,69,0.00,,,0.00,weatherlink.com 1.10,2013-04-22 21:23:00,
2013-04-22 17:38:00,45.8,36.0,30.65,SE,135,2.0,6.0,68,0.00,,,0.00,weatherlink.com 1.10,2013-04-22 21:38:00,
2013-04-22 17:53:00,45.4,35.0,30.65,ESE,120,3.0,12.0,68,0.00,,,0.00,weatherlink.com 1.10,2013-04-22 21:53:00,
2013-04-22 18:08:00,45.1,36.0,30.65,ENE,70,2.0,12.0,71,0.00,,,0.00,weatherlink.com 1.10,2013-04-22 22:08:00,
2013-04-22 18:23:00,44.6,35.0,30.65,ESE,107,6.0,10.0,70,0.00,,,0.00,weatherlink.com 1.10,2013-04-22 22:23:00,
2013-04-22 18:38:00,44.7,35.0,30.64,ESE,107,3.0,9.0,69,0.00,,,0.00,weatherlink.com 1.10,2013-04-22 22:38:00,
2013-04-22 18:53:00,44.3,35.0,30.64,SE,124,5.0,7.0,69,0.00,,,0.00,weatherlink.com 1.10,2013-04-22 22:53:00,
2013-04-22 19:08:00,44.0,35.0,30.64,East,79,1.0,6.0,70,0.00,,,0.00,weatherlink.com 1.10,2013-04-22 23:08:00,
2013-04-22 19:23:00,43.3,34.0,30.64,ENE,60,4.0,6.0,70,0.00,,,0.00,weatherlink.com 1.10,2013-04-22 23:23:00,
2013-04-22 19:38:00,42.9,33.0,30.64,NE,43,2.0,9.0,69,0.00,,,0.00,weatherlink.com 1.10,2013-04-22 23:38:00,
2013-04-22 19:53:00,42.5,33.0,30.64,ESE,108,2.0,7.0,70,0.00,,,0.00,weatherlink.com 1.10,2013-04-22 23:53:00,
2013-04-22 20:08:00,42.4,33.0,30.64,SSE,165,2.0,6.0,70,0.00,,,0.00,weatherlink.com 1.10,2013-04-23 00:08:00,
2013-04-22 20:23:00,42.2,33.0,30.64,East,80,5.0,9.0,70,0.00,,,0.00,weatherlink.com 1.10,2013-04-23 00:23:00,
2013-04-22 20:38:00,42.0,32.0,30.64,ENE,78,2.0,9.0,68,0.00,,,0.00,weatherlink.com 1.10,2013-04-23 00:38:00,
2013-04-22 20:53:00,41.8,32.0,30.63,ENE,59,3.0,7.0,69,0.00,,,0.00,weatherlink.com 1.10,2013-04-23 00:53:00,
2013-04-22 21:09:00,41.6,32.0,30.64,ESE,121,6.0,8.0,68,0.00,,,0.00,weatherlink.com 1.10,2013-04-23 01:09:00,
2013-04-22 21:24:00,41.5,32.0,30.63,East,100,1.0,6.0,69,0.00,,,0.00,weatherlink.com 1.10,2013-04-23 01:24:00,
2013-04-22 21:39:00,41.4,32.0,30.63,ESE,116,5.0,5.0,69,0.00,,,0.00,weatherlink.com 1.10,2013-04-23 01:39:00,
2013-04-22 21:55:00,41.4,32.0,30.63,SE,135,2.0,6.0,69,0.00,,,0.00,weatherlink.com 1.10,2013-04-23 01:55:00,
2013-04-22 22:09:00,41.3,32.0,30.63,NNW,335,1.0,6.0,69,0.00,,,0.00,weatherlink.com 1.10,2013-04-23 02:09:00,
2013-04-22 22:24:00,41.1,32.0,30.62,East,99,6.0,6.0,70,0.00,,,0.00,weatherlink.com 1.10,2013-04-23 02:24:00,
2013-04-22 22:39:00,41.1,32.0,30.61,ESE,104,0.0,6.0,70,0.00,,,0.00,weatherlink.com 1.10,2013-04-23 02:39:00,
2013-04-22 22:54:00,41.1,32.0,30.60,SSE,157,1.0,7.0,70,0.00,,,0.00,weatherlink.com 1.10,2013-04-23 02:54:00,
2013-04-22 23:09:00,40.9,32.0,30.60,ENE,61,4.0,9.0,70,0.00,,,0.00,weatherlink.com 1.10,2013-04-23 03:09:00,
2013-04-22 23:24:00,40.9,32.0,30.60,ENE,57,2.0,7.0,71,0.00,,,0.00,weatherlink.com 1.10,2013-04-23 03:24:00,
2013-04-22 23:39:00,40.8,32.0,30.60,SE,135,2.0,5.0,70,0.00,,,0.00,weatherlink.com 1.10,2013-04-23 03:39:00,
2013-04-22 23:54:00,40.9,32.0,30.59,NE,46,2.0,11.0,70,0.00,,,0.00,weatherlink.com 1.10,2013-04-23 03:54:00,